sensor_id;sensor_type;location;lat;lon;timestamp;P1;durP1;ratioP1;P2;durP2;ratioP2
37851;SDS011;23691;52.486;4.650;2022-08-19T00:00:17;12.02;;;6.22;;
37851;SDS011;23691;52.486;4.650;2022-08-19T00:02:48;14.75;;;6.07;;
37851;SDS011;23691;52.486;4.650;2022-08-19T00:05:14;12.77;;;6.57;;
37851;SDS011;23691;52.486;4.650;2022-08-19T00:07:41;12.13;;;6.60;;
37851;SDS011;23691;52.486;4.650;2022-08-19T00:10:08;10.90;;;6.40;;
37851;SDS011;23691;52.486;4.650;2022-08-19T00:12:35;12.25;;;6.63;;
37851;SDS011;23691;52.486;4.650;2022-08-19T00:15:03;12.75;;;6.35;;
37851;SDS011;23691;52.486;4.650;2022-08-19T00:17:30;11.15;;;6.55;;
37851;SDS011;23691;52.486;4.650;2022-08-19T00:19:55;11.57;;;6.43;;
37851;SDS011;23691;52.486;4.650;2022-08-19T00:22:21;13.65;;;6.60;;
37851;SDS011;23691;52.486;4.650;2022-08-19T00:24:46;12.45;;;6.45;;
37851;SDS011;23691;52.486;4.650;2022-08-19T00:27:12;11.10;;;6.38;;
37851;SDS011;23691;52.486;4.650;2022-08-19T00:29:38;14.65;;;7.10;;
37851;SDS011;23691;52.486;4.650;2022-08-19T00:32:04;14.40;;;6.47;;
37851;SDS011;23691;52.486;4.650;2022-08-19T00:34:30;12.55;;;6.50;;
37851;SDS011;23691;52.486;4.650;2022-08-19T00:36:56;12.50;;;6.72;;
37851;SDS011;23691;52.486;4.650;2022-08-19T00:39:22;11.23;;;6.45;;
37851;SDS011;23691;52.486;4.650;2022-08-19T00:41:48;11.80;;;6.88;;
37851;SDS011;23691;52.486;4.650;2022-08-19T00:44:20;11.60;;;6.73;;
37851;SDS011;23691;52.486;4.650;2022-08-19T00:46:49;13.45;;;6.70;;
37851;SDS011;23691;52.486;4.650;2022-08-19T00:49:35;12.95;;;6.90;;
37851;SDS011;23691;52.486;4.650;2022-08-19T00:52:04;12.25;;;6.82;;
37851;SDS011;23691;52.486;4.650;2022-08-19T00:54:33;12.10;;;6.60;;
37851;SDS011;23691;52.486;4.650;2022-08-19T00:57:01;12.10;;;7.28;;
37851;SDS011;23691;52.486;4.650;2022-08-19T00:59:29;12.77;;;7.30;;
37851;SDS011;23691;52.486;4.650;2022-08-19T01:01:55;15.23;;;7.78;;
37851;SDS011;23691;52.486;4.650;2022-08-19T01:04:20;14.90;;;8.23;;
37851;SDS011;23691;52.486;4.650;2022-08-19T01:06:46;13.90;;;8.45;;
37851;SDS011;23691;52.486;4.650;2022-08-19T01:09:11;15.40;;;8.30;;
37851;SDS011;23691;52.486;4.650;2022-08-19T01:11:39;16.35;;;9.07;;
37851;SDS011;23691;52.486;4.650;2022-08-19T01:14:08;15.07;;;9.05;;
37851;SDS011;23691;52.486;4.650;2022-08-19T01:16:34;18.25;;;9.45;;
37851;SDS011;23691;52.486;4.650;2022-08-19T01:19:02;15.07;;;9.23;;
37851;SDS011;23691;52.486;4.650;2022-08-19T01:22:19;15.05;;;9.23;;
37851;SDS011;23691;52.486;4.650;2022-08-19T01:24:31;14.82;;;8.82;;
37851;SDS011;23691;52.486;4.650;2022-08-19T01:26:57;13.90;;;8.88;;
37851;SDS011;23691;52.486;4.650;2022-08-19T01:29:22;15.95;;;9.05;;
37851;SDS011;23691;52.486;4.650;2022-08-19T01:31:48;13.10;;;8.23;;
37851;SDS011;23691;52.486;4.650;2022-08-19T01:34:14;18.95;;;8.80;;
37851;SDS011;23691;52.486;4.650;2022-08-19T01:36:43;15.25;;;8.48;;
37851;SDS011;23691;52.486;4.650;2022-08-19T01:39:11;15.90;;;8.70;;
37851;SDS011;23691;52.486;4.650;2022-08-19T01:41:38;14.82;;;9.02;;
37851;SDS011;23691;52.486;4.650;2022-08-19T01:44:05;14.43;;;8.48;;
37851;SDS011;23691;52.486;4.650;2022-08-19T01:46:32;14.38;;;7.88;;
37851;SDS011;23691;52.486;4.650;2022-08-19T01:48:58;13.48;;;7.95;;
37851;SDS011;23691;52.486;4.650;2022-08-19T01:51:23;14.30;;;8.00;;
37851;SDS011;23691;52.486;4.650;2022-08-19T01:53:50;12.43;;;7.35;;
37851;SDS011;23691;52.486;4.650;2022-08-19T01:56:16;15.00;;;7.80;;
37851;SDS011;23691;52.486;4.650;2022-08-19T01:58:47;12.77;;;8.25;;
37851;SDS011;23691;52.486;4.650;2022-08-19T02:01:16;15.18;;;7.57;;
37851;SDS011;23691;52.486;4.650;2022-08-19T02:03:42;12.93;;;7.47;;
37851;SDS011;23691;52.486;4.650;2022-08-19T02:06:08;14.43;;;7.80;;
37851;SDS011;23691;52.486;4.650;2022-08-19T02:08:36;14.90;;;7.78;;
37851;SDS011;23691;52.486;4.650;2022-08-19T02:11:03;13.70;;;8.07;;
37851;SDS011;23691;52.486;4.650;2022-08-19T02:13:30;15.80;;;7.88;;
37851;SDS011;23691;52.486;4.650;2022-08-19T02:15:56;17.20;;;8.05;;
37851;SDS011;23691;52.486;4.650;2022-08-19T02:18:23;13.20;;;7.85;;
37851;SDS011;23691;52.486;4.650;2022-08-19T02:20:48;15.77;;;8.15;;
37851;SDS011;23691;52.486;4.650;2022-08-19T02:23:14;14.20;;;7.55;;
37851;SDS011;23691;52.486;4.650;2022-08-19T02:25:41;13.65;;;8.50;;
37851;SDS011;23691;52.486;4.650;2022-08-19T02:28:09;14.68;;;7.82;;
37851;SDS011;23691;52.486;4.650;2022-08-19T02:30:34;13.32;;;8.10;;
37851;SDS011;23691;52.486;4.650;2022-08-19T02:33:00;15.60;;;7.57;;
37851;SDS011;23691;52.486;4.650;2022-08-19T02:35:25;15.88;;;7.57;;
37851;SDS011;23691;52.486;4.650;2022-08-19T02:37:51;13.77;;;7.68;;
37851;SDS011;23691;52.486;4.650;2022-08-19T02:40:35;15.07;;;7.40;;
37851;SDS011;23691;52.486;4.650;2022-08-19T02:43:01;12.45;;;7.05;;
37851;SDS011;23691;52.486;4.650;2022-08-19T02:45:37;14.52;;;7.22;;
37851;SDS011;23691;52.486;4.650;2022-08-19T02:48:05;13.35;;;6.65;;
37851;SDS011;23691;52.486;4.650;2022-08-19T02:50:31;12.23;;;7.15;;
37851;SDS011;23691;52.486;4.650;2022-08-19T02:52:56;21.75;;;7.55;;
37851;SDS011;23691;52.486;4.650;2022-08-19T02:55:22;14.38;;;7.25;;
37851;SDS011;23691;52.486;4.650;2022-08-19T02:57:48;14.30;;;7.75;;
37851;SDS011;23691;52.486;4.650;2022-08-19T03:00:13;14.70;;;7.38;;
37851;SDS011;23691;52.486;4.650;2022-08-19T03:02:40;14.95;;;7.75;;
37851;SDS011;23691;52.486;4.650;2022-08-19T03:05:07;15.55;;;8.18;;
37851;SDS011;23691;52.486;4.650;2022-08-19T03:07:35;14.15;;;8.52;;
37851;SDS011;23691;52.486;4.650;2022-08-19T03:10:00;15.57;;;8.90;;
37851;SDS011;23691;52.486;4.650;2022-08-19T03:12:29;16.13;;;8.93;;
37851;SDS011;23691;52.486;4.650;2022-08-19T03:14:54;15.82;;;9.00;;
37851;SDS011;23691;52.486;4.650;2022-08-19T03:17:20;16.52;;;9.18;;
37851;SDS011;23691;52.486;4.650;2022-08-19T03:19:45;16.65;;;9.30;;
37851;SDS011;23691;52.486;4.650;2022-08-19T03:22:11;15.93;;;9.13;;
37851;SDS011;23691;52.486;4.650;2022-08-19T03:24:36;19.13;;;9.32;;
37851;SDS011;23691;52.486;4.650;2022-08-19T03:27:02;18.20;;;9.50;;
37851;SDS011;23691;52.486;4.650;2022-08-19T03:29:30;15.77;;;9.47;;
37851;SDS011;23691;52.486;4.650;2022-08-19T03:32:00;18.45;;;9.82;;
37851;SDS011;23691;52.486;4.650;2022-08-19T03:34:29;16.48;;;10.20;;
37851;SDS011;23691;52.486;4.650;2022-08-19T03:36:57;20.08;;;11.40;;
37851;SDS011;23691;52.486;4.650;2022-08-19T03:39:25;18.98;;;10.75;;
37851;SDS011;23691;52.486;4.650;2022-08-19T03:41:52;17.60;;;11.55;;
37851;SDS011;23691;52.486;4.650;2022-08-19T03:44:21;18.95;;;11.95;;
37851;SDS011;23691;52.486;4.650;2022-08-19T03:46:48;20.80;;;13.27;;
37851;SDS011;23691;52.486;4.650;2022-08-19T03:49:16;23.20;;;13.55;;
37851;SDS011;23691;52.486;4.650;2022-08-19T03:51:42;20.60;;;13.93;;
37851;SDS011;23691;52.486;4.650;2022-08-19T03:54:09;22.75;;;13.90;;
37851;SDS011;23691;52.486;4.650;2022-08-19T03:56:37;24.02;;;14.85;;
37851;SDS011;23691;52.486;4.650;2022-08-19T03:59:04;23.38;;;14.48;;
37851;SDS011;23691;52.486;4.650;2022-08-19T04:01:32;23.33;;;14.32;;
37851;SDS011;23691;52.486;4.650;2022-08-19T04:04:00;26.05;;;15.90;;
37851;SDS011;23691;52.486;4.650;2022-08-19T04:06:27;23.80;;;16.20;;
37851;SDS011;23691;52.486;4.650;2022-08-19T04:08:55;24.85;;;16.35;;
37851;SDS011;23691;52.486;4.650;2022-08-19T04:11:25;25.42;;;16.17;;
37851;SDS011;23691;52.486;4.650;2022-08-19T04:13:52;25.42;;;17.90;;
37851;SDS011;23691;52.486;4.650;2022-08-19T04:16:19;31.13;;;18.23;;
37851;SDS011;23691;52.486;4.650;2022-08-19T04:18:46;28.45;;;18.13;;
37851;SDS011;23691;52.486;4.650;2022-08-19T04:21:17;27.45;;;18.20;;
37851;SDS011;23691;52.486;4.650;2022-08-19T04:23:45;30.48;;;18.65;;
37851;SDS011;23691;52.486;4.650;2022-08-19T04:26:14;28.77;;;19.08;;
37851;SDS011;23691;52.486;4.650;2022-08-19T04:28:41;30.95;;;18.90;;
37851;SDS011;23691;52.486;4.650;2022-08-19T04:31:13;30.98;;;18.85;;
37851;SDS011;23691;52.486;4.650;2022-08-19T04:33:40;26.80;;;18.00;;
37851;SDS011;23691;52.486;4.650;2022-08-19T04:36:06;30.48;;;18.25;;
37851;SDS011;23691;52.486;4.650;2022-08-19T04:38:32;29.50;;;18.17;;
37851;SDS011;23691;52.486;4.650;2022-08-19T04:40:58;30.13;;;18.90;;
37851;SDS011;23691;52.486;4.650;2022-08-19T04:43:42;33.42;;;18.83;;
37851;SDS011;23691;52.486;4.650;2022-08-19T04:46:14;32.22;;;18.35;;
37851;SDS011;23691;52.486;4.650;2022-08-19T04:48:39;31.13;;;19.13;;
37851;SDS011;23691;52.486;4.650;2022-08-19T04:51:06;35.42;;;19.27;;
37851;SDS011;23691;52.486;4.650;2022-08-19T04:53:39;33.15;;;19.20;;
37851;SDS011;23691;52.486;4.650;2022-08-19T04:56:07;32.28;;;17.80;;
37851;SDS011;23691;52.486;4.650;2022-08-19T04:58:34;29.25;;;17.50;;
37851;SDS011;23691;52.486;4.650;2022-08-19T05:01:00;31.63;;;17.33;;
37851;SDS011;23691;52.486;4.650;2022-08-19T05:03:26;30.23;;;17.77;;
37851;SDS011;23691;52.486;4.650;2022-08-19T05:05:52;32.65;;;17.58;;
37851;SDS011;23691;52.486;4.650;2022-08-19T05:08:19;32.65;;;17.17;;
37851;SDS011;23691;52.486;4.650;2022-08-19T05:10:47;30.80;;;18.02;;
37851;SDS011;23691;52.486;4.650;2022-08-19T05:13:14;33.30;;;17.73;;
37851;SDS011;23691;52.486;4.650;2022-08-19T05:15:41;32.23;;;17.60;;
37851;SDS011;23691;52.486;4.650;2022-08-19T05:18:07;31.63;;;17.83;;
37851;SDS011;23691;52.486;4.650;2022-08-19T05:20:51;30.05;;;17.30;;
37851;SDS011;23691;52.486;4.650;2022-08-19T05:23:35;31.83;;;16.88;;
37851;SDS011;23691;52.486;4.650;2022-08-19T05:26:01;29.52;;;16.75;;
37851;SDS011;23691;52.486;4.650;2022-08-19T05:28:26;30.98;;;16.58;;
37851;SDS011;23691;52.486;4.650;2022-08-19T05:30:52;28.90;;;15.45;;
37851;SDS011;23691;52.486;4.650;2022-08-19T05:33:20;27.30;;;15.65;;
37851;SDS011;23691;52.486;4.650;2022-08-19T05:35:46;27.27;;;15.27;;
37851;SDS011;23691;52.486;4.650;2022-08-19T05:38:14;32.60;;;16.23;;
37851;SDS011;23691;52.486;4.650;2022-08-19T05:40:41;28.17;;;14.88;;
37851;SDS011;23691;52.486;4.650;2022-08-19T05:43:08;27.25;;;14.80;;
37851;SDS011;23691;52.486;4.650;2022-08-19T05:45:37;29.60;;;15.32;;
37851;SDS011;23691;52.486;4.650;2022-08-19T05:48:04;29.48;;;15.20;;
37851;SDS011;23691;52.486;4.650;2022-08-19T05:50:29;27.98;;;14.70;;
37851;SDS011;23691;52.486;4.650;2022-08-19T05:52:55;27.38;;;14.82;;
37851;SDS011;23691;52.486;4.650;2022-08-19T05:55:20;32.78;;;15.85;;
37851;SDS011;23691;52.486;4.650;2022-08-19T05:57:47;28.23;;;16.02;;
37851;SDS011;23691;52.486;4.650;2022-08-19T06:00:13;31.50;;;15.68;;
37851;SDS011;23691;52.486;4.650;2022-08-19T06:02:39;27.52;;;16.33;;
37851;SDS011;23691;52.486;4.650;2022-08-19T06:05:06;30.13;;;15.90;;
37851;SDS011;23691;52.486;4.650;2022-08-19T06:07:34;29.95;;;16.13;;
37851;SDS011;23691;52.486;4.650;2022-08-19T06:10:01;35.17;;;17.52;;
37851;SDS011;23691;52.486;4.650;2022-08-19T06:12:28;31.92;;;17.35;;
37851;SDS011;23691;52.486;4.650;2022-08-19T06:14:56;34.85;;;17.00;;
37851;SDS011;23691;52.486;4.650;2022-08-19T06:17:24;32.40;;;17.38;;
37851;SDS011;23691;52.486;4.650;2022-08-19T06:19:51;37.28;;;18.33;;
37851;SDS011;23691;52.486;4.650;2022-08-19T06:22:17;33.13;;;17.95;;
37851;SDS011;23691;52.486;4.650;2022-08-19T06:24:42;29.35;;;17.92;;
37851;SDS011;23691;52.486;4.650;2022-08-19T06:27:08;33.00;;;16.63;;
37851;SDS011;23691;52.486;4.650;2022-08-19T06:29:34;33.80;;;18.00;;
37851;SDS011;23691;52.486;4.650;2022-08-19T06:32:00;40.28;;;18.33;;
37851;SDS011;23691;52.486;4.650;2022-08-19T06:36:54;38.60;;;18.10;;
37851;SDS011;23691;52.486;4.650;2022-08-19T06:39:22;32.67;;;18.77;;
37851;SDS011;23691;52.486;4.650;2022-08-19T06:41:50;32.60;;;16.52;;
37851;SDS011;23691;52.486;4.650;2022-08-19T06:44:19;31.88;;;17.60;;
37851;SDS011;23691;52.486;4.650;2022-08-19T06:46:45;36.63;;;17.98;;
37851;SDS011;23691;52.486;4.650;2022-08-19T06:49:20;37.45;;;17.52;;
37851;SDS011;23691;52.486;4.650;2022-08-19T06:51:47;33.30;;;15.82;;
37851;SDS011;23691;52.486;4.650;2022-08-19T06:54:15;35.17;;;16.80;;
37851;SDS011;23691;52.486;4.650;2022-08-19T06:56:41;34.75;;;15.50;;
37851;SDS011;23691;52.486;4.650;2022-08-19T06:59:12;30.85;;;14.77;;
37851;SDS011;23691;52.486;4.650;2022-08-19T07:01:44;30.73;;;13.52;;
37851;SDS011;23691;52.486;4.650;2022-08-19T07:04:12;32.58;;;13.30;;
37851;SDS011;23691;52.486;4.650;2022-08-19T07:06:39;25.83;;;11.85;;
37851;SDS011;23691;52.486;4.650;2022-08-19T07:09:05;33.55;;;12.40;;
37851;SDS011;23691;52.486;4.650;2022-08-19T07:11:31;27.40;;;10.52;;
37851;SDS011;23691;52.486;4.650;2022-08-19T07:13:57;28.25;;;10.00;;
37851;SDS011;23691;52.486;4.650;2022-08-19T07:16:23;20.95;;;8.02;;
37851;SDS011;23691;52.486;4.650;2022-08-19T07:18:49;24.33;;;7.57;;
37851;SDS011;23691;52.486;4.650;2022-08-19T07:21:19;19.25;;;7.05;;
37851;SDS011;23691;52.486;4.650;2022-08-19T07:23:47;21.00;;;6.43;;
37851;SDS011;23691;52.486;4.650;2022-08-19T07:26:24;17.98;;;6.20;;
37851;SDS011;23691;52.486;4.650;2022-08-19T07:28:55;19.50;;;6.18;;
37851;SDS011;23691;52.486;4.650;2022-08-19T07:31:23;19.00;;;6.07;;
37851;SDS011;23691;52.486;4.650;2022-08-19T07:33:51;17.60;;;6.35;;
37851;SDS011;23691;52.486;4.650;2022-08-19T07:36:21;19.98;;;5.88;;
37851;SDS011;23691;52.486;4.650;2022-08-19T07:38:49;17.80;;;7.00;;
37851;SDS011;23691;52.486;4.650;2022-08-19T07:41:17;18.05;;;6.38;;
37851;SDS011;23691;52.486;4.650;2022-08-19T07:43:45;17.70;;;5.90;;
37851;SDS011;23691;52.486;4.650;2022-08-19T07:46:11;18.75;;;5.70;;
37851;SDS011;23691;52.486;4.650;2022-08-19T07:48:38;15.07;;;6.07;;
37851;SDS011;23691;52.486;4.650;2022-08-19T07:51:06;16.67;;;5.63;;
37851;SDS011;23691;52.486;4.650;2022-08-19T07:53:33;15.10;;;4.70;;
37851;SDS011;23691;52.486;4.650;2022-08-19T07:56:00;17.70;;;5.55;;
37851;SDS011;23691;52.486;4.650;2022-08-19T07:58:29;17.65;;;5.13;;
37851;SDS011;23691;52.486;4.650;2022-08-19T08:01:00;15.75;;;5.63;;
37851;SDS011;23691;52.486;4.650;2022-08-19T08:03:27;13.35;;;5.10;;
37851;SDS011;23691;52.486;4.650;2022-08-19T08:06:13;13.38;;;5.47;;
37851;SDS011;23691;52.486;4.650;2022-08-19T08:09:00;22.48;;;5.80;;
37851;SDS011;23691;52.486;4.650;2022-08-19T08:11:47;14.98;;;5.28;;
37851;SDS011;23691;52.486;4.650;2022-08-19T08:14:20;16.15;;;4.90;;
37851;SDS011;23691;52.486;4.650;2022-08-19T08:16:49;19.38;;;5.22;;
37851;SDS011;23691;52.486;4.650;2022-08-19T08:19:16;21.00;;;5.43;;
37851;SDS011;23691;52.486;4.650;2022-08-19T08:21:44;16.55;;;5.65;;
37851;SDS011;23691;52.486;4.650;2022-08-19T08:24:09;15.00;;;4.80;;
37851;SDS011;23691;52.486;4.650;2022-08-19T08:26:35;18.73;;;4.80;;
37851;SDS011;23691;52.486;4.650;2022-08-19T08:29:01;16.60;;;4.45;;
37851;SDS011;23691;52.486;4.650;2022-08-19T08:31:27;13.48;;;4.45;;
37851;SDS011;23691;52.486;4.650;2022-08-19T08:33:53;14.60;;;4.72;;
37851;SDS011;23691;52.486;4.650;2022-08-19T08:36:19;13.52;;;4.47;;
37851;SDS011;23691;52.486;4.650;2022-08-19T08:38:48;17.88;;;5.65;;
37851;SDS011;23691;52.486;4.650;2022-08-19T08:41:16;16.05;;;4.88;;
37851;SDS011;23691;52.486;4.650;2022-08-19T08:43:52;12.68;;;4.60;;
37851;SDS011;23691;52.486;4.650;2022-08-19T08:51:36;15.80;;;5.57;;
37851;SDS011;23691;52.486;4.650;2022-08-19T08:54:06;15.40;;;4.07;;
37851;SDS011;23691;52.486;4.650;2022-08-19T08:56:41;16.75;;;5.13;;
37851;SDS011;23691;52.486;4.650;2022-08-19T08:59:11;17.23;;;4.20;;
37851;SDS011;23691;52.486;4.650;2022-08-19T09:01:44;14.38;;;4.05;;
37851;SDS011;23691;52.486;4.650;2022-08-19T09:04:09;12.80;;;3.88;;
37851;SDS011;23691;52.486;4.650;2022-08-19T09:06:42;16.60;;;4.00;;
37851;SDS011;23691;52.486;4.650;2022-08-19T09:14:45;12.13;;;4.43;;
37851;SDS011;23691;52.486;4.650;2022-08-19T09:17:16;13.65;;;4.38;;
37851;SDS011;23691;52.486;4.650;2022-08-19T09:19:49;20.77;;;5.40;;
37851;SDS011;23691;52.486;4.650;2022-08-19T09:22:15;14.88;;;4.40;;
37851;SDS011;23691;52.486;4.650;2022-08-19T09:24:40;16.05;;;4.63;;
37851;SDS011;23691;52.486;4.650;2022-08-19T09:27:06;15.50;;;4.53;;
37851;SDS011;23691;52.486;4.650;2022-08-19T09:29:31;10.43;;;4.18;;
37851;SDS011;23691;52.486;4.650;2022-08-19T09:31:57;13.90;;;4.30;;
37851;SDS011;23691;52.486;4.650;2022-08-19T09:34:22;13.52;;;4.00;;
37851;SDS011;23691;52.486;4.650;2022-08-19T09:36:48;11.05;;;3.53;;
37851;SDS011;23691;52.486;4.650;2022-08-19T09:39:18;12.07;;;3.90;;
37851;SDS011;23691;52.486;4.650;2022-08-19T09:41:43;13.73;;;3.90;;
37851;SDS011;23691;52.486;4.650;2022-08-19T09:44:09;15.43;;;4.32;;
37851;SDS011;23691;52.486;4.650;2022-08-19T09:46:36;13.02;;;3.70;;
37851;SDS011;23691;52.486;4.650;2022-08-19T09:49:01;13.35;;;4.05;;
37851;SDS011;23691;52.486;4.650;2022-08-19T09:51:27;14.25;;;3.78;;
37851;SDS011;23691;52.486;4.650;2022-08-19T09:53:54;11.10;;;3.63;;
37851;SDS011;23691;52.486;4.650;2022-08-19T09:56:24;10.73;;;3.63;;
37851;SDS011;23691;52.486;4.650;2022-08-19T09:58:49;11.35;;;3.72;;
37851;SDS011;23691;52.486;4.650;2022-08-19T10:01:16;10.23;;;3.35;;
37851;SDS011;23691;52.486;4.650;2022-08-19T10:03:46;14.80;;;3.42;;
37851;SDS011;23691;52.486;4.650;2022-08-19T10:06:14;10.80;;;3.13;;
37851;SDS011;23691;52.486;4.650;2022-08-19T10:08:39;13.07;;;3.40;;
37851;SDS011;23691;52.486;4.650;2022-08-19T10:11:05;15.18;;;3.80;;
37851;SDS011;23691;52.486;4.650;2022-08-19T10:13:31;13.50;;;3.20;;
37851;SDS011;23691;52.486;4.650;2022-08-19T10:18:53;13.88;;;3.75;;
37851;SDS011;23691;52.486;4.650;2022-08-19T10:21:21;12.93;;;3.95;;
37851;SDS011;23691;52.486;4.650;2022-08-19T10:23:49;12.38;;;3.95;;
37851;SDS011;23691;52.486;4.650;2022-08-19T10:28:42;12.95;;;3.95;;
37851;SDS011;23691;52.486;4.650;2022-08-19T10:31:12;12.73;;;3.83;;
37851;SDS011;23691;52.486;4.650;2022-08-19T10:33:42;13.05;;;3.88;;
37851;SDS011;23691;52.486;4.650;2022-08-19T10:36:12;9.82;;;3.60;;
37851;SDS011;23691;52.486;4.650;2022-08-19T10:38:42;11.85;;;3.20;;
37851;SDS011;23691;52.486;4.650;2022-08-19T10:41:10;11.80;;;2.93;;
37851;SDS011;23691;52.486;4.650;2022-08-19T10:43:38;9.95;;;3.00;;
37851;SDS011;23691;52.486;4.650;2022-08-19T10:46:09;10.23;;;3.20;;
37851;SDS011;23691;52.486;4.650;2022-08-19T10:48:35;9.40;;;3.40;;
37851;SDS011;23691;52.486;4.650;2022-08-19T10:51:02;11.23;;;3.92;;
37851;SDS011;23691;52.486;4.650;2022-08-19T10:53:47;9.13;;;3.03;;
37851;SDS011;23691;52.486;4.650;2022-08-19T10:56:12;9.63;;;2.95;;
37851;SDS011;23691;52.486;4.650;2022-08-19T10:58:57;12.18;;;3.80;;
37851;SDS011;23691;52.486;4.650;2022-08-19T11:01:23;11.45;;;3.45;;
37851;SDS011;23691;52.486;4.650;2022-08-19T11:03:49;14.68;;;3.03;;
37851;SDS011;23691;52.486;4.650;2022-08-19T11:06:15;12.40;;;3.28;;
37851;SDS011;23691;52.486;4.650;2022-08-19T11:08:40;10.38;;;3.05;;
37851;SDS011;23691;52.486;4.650;2022-08-19T11:11:07;11.00;;;3.08;;
37851;SDS011;23691;52.486;4.650;2022-08-19T11:13:34;11.73;;;3.92;;
37851;SDS011;23691;52.486;4.650;2022-08-19T11:16:09;11.30;;;4.15;;
37851;SDS011;23691;52.486;4.650;2022-08-19T11:18:38;13.00;;;3.53;;
37851;SDS011;23691;52.486;4.650;2022-08-19T11:21:15;14.40;;;2.80;;
37851;SDS011;23691;52.486;4.650;2022-08-19T11:23:50;9.23;;;2.85;;
37851;SDS011;23691;52.486;4.650;2022-08-19T11:26:18;10.98;;;3.10;;
37851;SDS011;23691;52.486;4.650;2022-08-19T11:28:45;10.23;;;2.95;;
37851;SDS011;23691;52.486;4.650;2022-08-19T11:31:16;9.38;;;2.60;;
37851;SDS011;23691;52.486;4.650;2022-08-19T11:33:43;8.93;;;2.70;;
37851;SDS011;23691;52.486;4.650;2022-08-19T11:36:11;9.90;;;2.75;;
37851;SDS011;23691;52.486;4.650;2022-08-19T11:38:37;9.20;;;2.90;;
37851;SDS011;23691;52.486;4.650;2022-08-19T11:41:05;9.80;;;2.97;;
37851;SDS011;23691;52.486;4.650;2022-08-19T11:43:35;9.50;;;2.92;;
37851;SDS011;23691;52.486;4.650;2022-08-19T11:46:12;7.22;;;2.63;;
37851;SDS011;23691;52.486;4.650;2022-08-19T11:48:39;10.25;;;2.92;;
37851;SDS011;23691;52.486;4.650;2022-08-19T11:51:06;7.10;;;2.58;;
37851;SDS011;23691;52.486;4.650;2022-08-19T11:53:34;9.18;;;2.58;;
37851;SDS011;23691;52.486;4.650;2022-08-19T11:56:01;14.18;;;3.22;;
37851;SDS011;23691;52.486;4.650;2022-08-19T11:58:27;8.13;;;2.20;;
37851;SDS011;23691;52.486;4.650;2022-08-19T12:00:54;10.23;;;2.40;;
37851;SDS011;23691;52.486;4.650;2022-08-19T12:03:19;9.85;;;2.80;;
37851;SDS011;23691;52.486;4.650;2022-08-19T12:05:45;8.73;;;2.50;;
37851;SDS011;23691;52.486;4.650;2022-08-19T12:08:10;8.25;;;2.10;;
37851;SDS011;23691;52.486;4.650;2022-08-19T12:10:37;7.00;;;1.92;;
37851;SDS011;23691;52.486;4.650;2022-08-19T12:13:04;7.22;;;1.90;;
37851;SDS011;23691;52.486;4.650;2022-08-19T12:15:30;8.18;;;2.20;;
37851;SDS011;23691;52.486;4.650;2022-08-19T12:17:56;8.55;;;2.08;;
37851;SDS011;23691;52.486;4.650;2022-08-19T12:20:22;5.93;;;1.90;;
37851;SDS011;23691;52.486;4.650;2022-08-19T12:22:49;6.47;;;1.70;;
37851;SDS011;23691;52.486;4.650;2022-08-19T12:25:15;7.30;;;1.80;;
37851;SDS011;23691;52.486;4.650;2022-08-19T12:27:40;9.80;;;2.10;;
37851;SDS011;23691;52.486;4.650;2022-08-19T12:30:07;7.05;;;2.03;;
37851;SDS011;23691;52.486;4.650;2022-08-19T12:32:35;6.53;;;1.77;;
37851;SDS011;23691;52.486;4.650;2022-08-19T12:35:01;6.53;;;2.13;;
37851;SDS011;23691;52.486;4.650;2022-08-19T12:37:26;9.02;;;2.10;;
37851;SDS011;23691;52.486;4.650;2022-08-19T12:39:52;10.10;;;1.98;;
37851;SDS011;23691;52.486;4.650;2022-08-19T12:42:17;8.65;;;1.90;;
37851;SDS011;23691;52.486;4.650;2022-08-19T12:44:43;7.85;;;1.85;;
37851;SDS011;23691;52.486;4.650;2022-08-19T12:47:11;10.60;;;2.20;;
37851;SDS011;23691;52.486;4.650;2022-08-19T12:49:38;11.43;;;2.13;;
37851;SDS011;23691;52.486;4.650;2022-08-19T12:52:05;11.43;;;2.50;;
37851;SDS011;23691;52.486;4.650;2022-08-19T12:54:32;6.75;;;1.95;;
37851;SDS011;23691;52.486;4.650;2022-08-19T12:56:58;7.43;;;1.75;;
37851;SDS011;23691;52.486;4.650;2022-08-19T12:59:26;9.02;;;1.63;;
37851;SDS011;23691;52.486;4.650;2022-08-19T13:01:52;6.93;;;1.87;;
37851;SDS011;23691;52.486;4.650;2022-08-19T13:04:18;5.47;;;1.63;;
37851;SDS011;23691;52.486;4.650;2022-08-19T13:06:43;6.90;;;1.50;;
37851;SDS011;23691;52.486;4.650;2022-08-19T13:09:08;5.18;;;1.17;;
37851;SDS011;23691;52.486;4.650;2022-08-19T13:11:34;6.28;;;1.50;;
37851;SDS011;23691;52.486;4.650;2022-08-19T13:14:01;7.32;;;1.80;;
37851;SDS011;23691;52.486;4.650;2022-08-19T13:16:27;6.70;;;1.88;;
37851;SDS011;23691;52.486;4.650;2022-08-19T13:18:53;5.18;;;1.42;;
37851;SDS011;23691;52.486;4.650;2022-08-19T13:21:20;6.93;;;1.90;;
37851;SDS011;23691;52.486;4.650;2022-08-19T13:23:55;4.53;;;1.40;;
37851;SDS011;23691;52.486;4.650;2022-08-19T13:26:21;5.25;;;1.30;;
37851;SDS011;23691;52.486;4.650;2022-08-19T13:28:46;6.07;;;1.20;;
37851;SDS011;23691;52.486;4.650;2022-08-19T13:31:32;5.85;;;1.50;;
37851;SDS011;23691;52.486;4.650;2022-08-19T13:34:18;5.88;;;1.58;;
37851;SDS011;23691;52.486;4.650;2022-08-19T13:36:51;5.15;;;1.17;;
37851;SDS011;23691;52.486;4.650;2022-08-19T13:39:17;7.22;;;1.15;;
37851;SDS011;23691;52.486;4.650;2022-08-19T13:41:44;5.70;;;1.10;;
37851;SDS011;23691;52.486;4.650;2022-08-19T13:44:13;5.43;;;1.40;;
37851;SDS011;23691;52.486;4.650;2022-08-19T13:46:40;4.88;;;1.42;;
37851;SDS011;23691;52.486;4.650;2022-08-19T13:49:09;6.60;;;1.60;;
37851;SDS011;23691;52.486;4.650;2022-08-19T13:51:34;6.78;;;1.50;;
37851;SDS011;23691;52.486;4.650;2022-08-19T13:53:59;5.90;;;1.55;;
37851;SDS011;23691;52.486;4.650;2022-08-19T13:56:25;8.50;;;1.88;;
37851;SDS011;23691;52.486;4.650;2022-08-19T13:58:50;6.30;;;1.88;;
37851;SDS011;23691;52.486;4.650;2022-08-19T14:01:20;10.18;;;2.60;;
37851;SDS011;23691;52.486;4.650;2022-08-19T14:03:46;9.30;;;2.50;;
37851;SDS011;23691;52.486;4.650;2022-08-19T14:06:12;7.15;;;2.10;;
37851;SDS011;23691;52.486;4.650;2022-08-19T14:08:37;9.10;;;1.60;;
37851;SDS011;23691;52.486;4.650;2022-08-19T14:11:04;7.23;;;2.53;;
37851;SDS011;23691;52.486;4.650;2022-08-19T14:13:30;8.65;;;2.10;;
37851;SDS011;23691;52.486;4.650;2022-08-19T14:15:58;10.40;;;1.80;;
37851;SDS011;23691;52.486;4.650;2022-08-19T14:18:23;7.35;;;1.70;;
37851;SDS011;23691;52.486;4.650;2022-08-19T14:20:50;9.00;;;1.90;;
37851;SDS011;23691;52.486;4.650;2022-08-19T14:23:15;6.15;;;1.85;;
37851;SDS011;23691;52.486;4.650;2022-08-19T14:25:41;8.82;;;2.33;;
37851;SDS011;23691;52.486;4.650;2022-08-19T14:28:07;7.05;;;2.00;;
37851;SDS011;23691;52.486;4.650;2022-08-19T14:30:33;7.15;;;2.00;;
37851;SDS011;23691;52.486;4.650;2022-08-19T14:33:02;8.10;;;2.10;;
37851;SDS011;23691;52.486;4.650;2022-08-19T14:35:30;8.23;;;2.15;;
37851;SDS011;23691;52.486;4.650;2022-08-19T14:38:02;9.45;;;2.63;;
37851;SDS011;23691;52.486;4.650;2022-08-19T14:40:30;8.30;;;2.33;;
37851;SDS011;23691;52.486;4.650;2022-08-19T14:42:57;8.60;;;2.33;;
37851;SDS011;23691;52.486;4.650;2022-08-19T14:45:29;8.98;;;2.40;;
37851;SDS011;23691;52.486;4.650;2022-08-19T14:47:55;8.82;;;2.03;;
37851;SDS011;23691;52.486;4.650;2022-08-19T14:50:21;8.35;;;1.80;;
37851;SDS011;23691;52.486;4.650;2022-08-19T14:52:47;6.28;;;1.70;;
37851;SDS011;23691;52.486;4.650;2022-08-19T14:55:14;8.40;;;1.83;;